createdAt,value
2023-01-13T00:01:18.583Z,29.42
2023-01-13T00:03:47.677Z,24.70
2023-01-13T00:06:17.083Z,25.75
2023-01-13T00:08:45.575Z,23.58
2023-01-13T00:11:14.279Z,26.38
2023-01-13T00:13:43.224Z,21.40
2023-01-13T00:16:13.350Z,21.20
2023-01-13T00:18:43.376Z,23.67
2023-01-13T00:21:13.819Z,19.33
2023-01-13T00:23:42.693Z,19.90
2023-01-13T00:26:12.651Z,21.70
2023-01-13T00:28:41.103Z,21.48
2023-01-13T00:31:10.586Z,20.30
2023-01-13T00:33:39.628Z,19.83
2023-01-13T00:36:10.640Z,19.52
2023-01-13T00:38:39.211Z,19.63
2023-01-13T00:41:08.710Z,20.30
2023-01-13T00:43:36.558Z,20.27
2023-01-13T00:46:04.948Z,19.42
2023-01-13T00:48:33.690Z,19.00
2023-01-13T00:51:03.341Z,19.35
2023-01-13T00:53:34.750Z,18.55
2023-01-13T00:56:03.550Z,20.73
2023-01-13T00:58:32.869Z,19.50
2023-01-13T01:01:04.772Z,20.10
2023-01-13T01:03:34.187Z,18.33
2023-01-13T01:06:07.022Z,20.25
2023-01-13T01:08:37.256Z,20.13
2023-01-13T01:11:06.756Z,20.02
2023-01-13T01:13:35.704Z,20.83
2023-01-13T01:16:07.002Z,20.10
2023-01-13T01:18:36.042Z,21.77
2023-01-13T01:21:11.496Z,20.35
2023-01-13T01:23:43.456Z,19.23
2023-01-13T01:26:13.871Z,18.75
2023-01-13T01:28:42.821Z,20.95
2023-01-13T01:31:12.027Z,18.48
2023-01-13T01:33:41.250Z,17.83
2023-01-13T01:36:10.368Z,16.70
2023-01-13T01:38:39.254Z,17.88
2023-01-13T01:41:09.324Z,17.00
2023-01-13T01:43:59.770Z,17.63
2023-01-13T01:46:29.209Z,18.05
2023-01-13T01:49:00.473Z,16.90
2023-01-13T01:51:30.583Z,16.95
2023-01-13T01:54:00.481Z,17.48
2023-01-13T01:56:32.079Z,18.17
2023-01-13T01:59:01.176Z,17.25
2023-01-13T02:01:29.791Z,17.05
2023-01-13T02:04:01.664Z,17.75
2023-01-13T02:06:31.122Z,17.13
2023-01-13T02:09:00.978Z,17.17
2023-01-13T02:11:51.733Z,16.48
2023-01-13T02:14:20.828Z,16.85
2023-01-13T02:16:56.245Z,16.08
2023-01-13T02:19:33.559Z,16.52
2023-01-13T02:22:17.047Z,16.27
2023-01-13T02:24:57.110Z,16.70
2023-01-13T02:27:40.554Z,16.95
2023-01-13T02:30:32.612Z,16.77
2023-01-13T02:33:05.445Z,18.27
2023-01-13T02:35:36.486Z,16.60
2023-01-13T02:38:05.705Z,18.75
2023-01-13T02:40:35.992Z,19.45
2023-01-13T02:43:23.487Z,16.65
2023-01-13T02:45:54.959Z,16.08
2023-01-13T02:48:24.381Z,14.82
2023-01-13T02:50:56.857Z,14.85
2023-01-13T02:53:28.767Z,13.30
2023-01-13T02:55:59.500Z,17.00
2023-01-13T02:58:28.917Z,16.38
2023-01-13T03:00:59.136Z,15.40
2023-01-13T03:03:27.627Z,14.90
2023-01-13T03:06:02.441Z,16.27
2023-01-13T03:08:39.803Z,14.45
2023-01-13T03:11:09.982Z,16.25
2023-01-13T03:13:56.766Z,15.90
2023-01-13T03:16:31.036Z,14.52
2023-01-13T03:19:04.887Z,14.55
2023-01-13T03:21:37.227Z,16.00
2023-01-13T03:24:09.087Z,14.80
2023-01-13T03:26:41.566Z,17.13
2023-01-13T03:29:15.102Z,18.30
2023-01-13T03:31:47.690Z,14.05
2023-01-13T03:34:18.504Z,17.88
2023-01-13T03:36:48.681Z,14.63
2023-01-13T03:39:19.336Z,16.63
2023-01-13T03:41:53.167Z,16.25
2023-01-13T03:44:25.148Z,18.23
2023-01-13T03:46:59.933Z,13.82
2023-01-13T03:49:29.803Z,14.23
2023-01-13T03:52:00.251Z,14.27
2023-01-13T03:54:30.125Z,16.67
2023-01-13T03:57:00.514Z,14.95
2023-01-13T03:59:30.762Z,14.80
2023-01-13T04:02:04.147Z,15.65
2023-01-13T04:04:35.217Z,14.85
2023-01-13T04:07:08.062Z,12.95
2023-01-13T04:09:40.650Z,14.60
2023-01-13T04:12:12.567Z,14.93
2023-01-13T04:14:41.362Z,15.15
2023-01-13T04:17:11.742Z,13.10
2023-01-13T04:19:40.317Z,12.43
2023-01-13T04:22:08.660Z,11.98
2023-01-13T04:24:37.299Z,12.52
2023-01-13T04:27:06.731Z,12.32
2023-01-13T04:29:35.078Z,13.55
2023-01-13T04:32:03.681Z,12.93
2023-01-13T04:34:33.605Z,14.00
2023-01-13T04:37:04.808Z,13.40
2023-01-13T04:39:33.447Z,12.68
2023-01-13T04:42:02.709Z,13.35
2023-01-13T04:44:35.395Z,13.43
2023-01-13T04:47:04.130Z,12.77
2023-01-13T04:49:33.767Z,13.70
2023-01-13T04:52:03.926Z,14.55
2023-01-13T04:54:32.187Z,13.45
2023-01-13T04:57:00.741Z,13.18
2023-01-13T04:59:28.965Z,12.90
2023-01-13T05:01:57.472Z,12.77
2023-01-13T05:04:26.831Z,12.70
2023-01-13T05:06:57.146Z,13.35
2023-01-13T05:09:27.202Z,13.30
2023-01-13T05:12:12.797Z,12.57
2023-01-13T05:14:58.587Z,14.05
2023-01-13T05:17:27.378Z,12.30
2023-01-13T05:19:57.404Z,11.60
2023-01-13T05:22:44.945Z,12.38
2023-01-13T05:25:25.992Z,14.25
2023-01-13T05:27:55.171Z,15.18
2023-01-13T05:30:27.095Z,13.50
2023-01-13T05:32:56.353Z,13.82
2023-01-13T05:35:25.310Z,13.48
2023-01-13T05:37:55.649Z,14.70
2023-01-13T05:40:41.758Z,14.30
2023-01-13T05:43:24.900Z,13.93
2023-01-13T05:45:54.818Z,14.20
2023-01-13T05:48:25.300Z,13.32
2023-01-13T05:50:54.049Z,13.90
2023-01-13T05:53:24.594Z,14.38
2023-01-13T05:55:53.080Z,15.23
2023-01-13T05:58:22.631Z,14.80
2023-01-13T06:00:52.380Z,14.98
2023-01-13T06:03:21.337Z,13.90
2023-01-13T06:05:51.596Z,13.95
2023-01-13T06:08:24.939Z,13.40
2023-01-13T06:10:53.608Z,15.30
2023-01-13T06:13:22.037Z,14.82
2023-01-13T06:15:50.274Z,14.20
2023-01-13T06:18:18.968Z,12.48
2023-01-13T06:20:48.538Z,13.43
2023-01-13T06:23:16.866Z,14.55
2023-01-13T06:25:49.453Z,13.93
2023-01-13T06:28:18.082Z,12.20
2023-01-13T06:30:48.236Z,13.43
2023-01-13T06:33:19.618Z,12.55
2023-01-13T06:35:55.693Z,14.82
2023-01-13T06:38:25.115Z,13.32
2023-01-13T06:40:55.378Z,13.60
2023-01-13T06:43:22.762Z,12.93
2023-01-13T06:45:52.635Z,13.43
2023-01-13T06:48:21.700Z,12.43
2023-01-13T06:50:50.032Z,13.65
2023-01-13T06:53:18.505Z,13.32
2023-01-13T06:55:46.998Z,12.98
2023-01-13T06:58:17.027Z,11.25
2023-01-13T07:00:49.890Z,12.15
2023-01-13T07:03:19.237Z,13.27
2023-01-13T07:05:53.218Z,13.90
2023-01-13T07:08:21.703Z,13.27
2023-01-13T07:10:51.605Z,13.82
2023-01-13T07:13:39.234Z,13.48
2023-01-13T07:16:08.421Z,14.50
2023-01-13T07:18:37.106Z,14.13
2023-01-13T07:21:07.330Z,14.23
2023-01-13T07:23:36.535Z,13.57
2023-01-13T07:26:05.405Z,14.70
2023-01-13T07:28:43.171Z,15.93
2023-01-13T07:31:15.134Z,14.00
2023-01-13T07:33:43.604Z,16.88
2023-01-13T07:36:12.429Z,14.55
2023-01-13T07:38:41.010Z,15.48
2023-01-13T07:41:27.096Z,14.68
2023-01-13T07:44:01.665Z,15.18
2023-01-13T07:46:30.747Z,14.82
2023-01-13T07:48:59.165Z,15.00
2023-01-13T07:51:28.075Z,17.33
2023-01-13T07:53:56.759Z,18.52
2023-01-13T07:56:33.120Z,13.80
2023-01-13T07:59:03.360Z,14.25
2023-01-13T08:01:33.245Z,14.23
2023-01-13T08:04:02.380Z,13.90
2023-01-13T08:06:30.981Z,13.43
2023-01-13T08:08:59.910Z,13.50
2023-01-13T08:11:28.632Z,14.00
2023-01-13T08:13:57.822Z,14.35
2023-01-13T08:16:27.993Z,14.88
2023-01-13T08:18:57.290Z,12.48
2023-01-13T08:21:26.340Z,12.38
2023-01-13T08:23:54.689Z,12.60
2023-01-13T08:26:23.244Z,12.40
2023-01-13T08:28:52.103Z,12.63
2023-01-13T08:31:20.831Z,13.65
2023-01-13T08:33:50.735Z,13.65
2023-01-13T08:36:19.662Z,13.02
2023-01-13T08:38:49.175Z,12.45
2023-01-13T08:41:38.975Z,12.05
2023-01-13T08:44:09.454Z,11.95
2023-01-13T08:46:38.386Z,11.95
2023-01-13T08:49:08.403Z,13.35
2023-01-13T08:51:37.716Z,11.77
2023-01-13T08:54:06.815Z,11.82
2023-01-13T08:56:36.821Z,12.80
2023-01-13T08:59:05.559Z,11.73
2023-01-13T09:01:34.376Z,11.80
2023-01-13T09:04:02.881Z,10.85
2023-01-13T09:06:33.299Z,11.73
2023-01-13T09:09:04.427Z,11.30
2023-01-13T09:11:52.530Z,11.60
2023-01-13T09:14:21.581Z,10.82
2023-01-13T09:16:50.055Z,11.30
2023-01-13T09:19:19.231Z,11.65
2023-01-13T09:21:49.444Z,11.95
2023-01-13T09:24:17.759Z,12.52
2023-01-13T09:26:46.393Z,12.02
2023-01-13T09:29:15.639Z,10.75
2023-01-13T09:31:44.785Z,11.52
2023-01-13T09:34:41.101Z,10.63
2023-01-13T09:37:11.346Z,10.90
2023-01-13T09:39:40.611Z,11.20
2023-01-13T09:42:34.734Z,10.57
2023-01-13T09:45:06.210Z,10.88
2023-01-13T09:47:37.073Z,11.50
2023-01-13T09:50:17.014Z,11.15
2023-01-13T09:52:51.058Z,10.98
2023-01-13T09:55:20.273Z,11.15
2023-01-13T09:57:48.911Z,10.82
2023-01-13T10:00:21.648Z,11.50
2023-01-13T10:02:57.947Z,10.98
2023-01-13T10:05:32.368Z,11.77
2023-01-13T10:08:05.600Z,11.50
2023-01-13T10:10:38.468Z,11.15
2023-01-13T10:13:14.835Z,12.18
2023-01-13T10:15:46.635Z,12.30
2023-01-13T10:18:17.213Z,11.05
2023-01-13T10:20:51.795Z,12.20
2023-01-13T10:23:35.416Z,12.20
2023-01-13T10:26:09.473Z,12.00
2023-01-13T10:28:38.407Z,12.40
2023-01-13T10:31:11.571Z,13.23
2023-01-13T10:33:41.792Z,13.13
2023-01-13T10:36:16.568Z,13.88
2023-01-13T10:38:47.197Z,14.25
2023-01-13T10:41:21.617Z,12.45
2023-01-13T10:43:59.944Z,12.23
2023-01-13T10:46:28.913Z,12.95
2023-01-13T10:48:58.646Z,13.90
2023-01-13T10:51:28.561Z,13.52
2023-01-13T10:54:00.880Z,13.40
2023-01-13T10:56:31.093Z,13.18
2023-01-13T10:59:10.860Z,11.60
2023-01-13T11:01:39.377Z,12.77
2023-01-13T11:04:18.455Z,12.70
2023-01-13T11:06:47.222Z,11.45
2023-01-13T11:09:24.027Z,11.35
2023-01-13T11:14:40.829Z,10.63
2023-01-13T11:17:17.576Z,10.50
2023-01-13T11:22:17.844Z,11.05
2023-01-13T11:24:51.408Z,11.15
2023-01-13T11:27:21.955Z,11.82
2023-01-13T11:30:01.427Z,10.95
2023-01-13T11:32:32.393Z,12.45
2023-01-13T11:35:02.526Z,11.70
2023-01-13T11:37:33.124Z,11.55
2023-01-13T11:40:06.727Z,10.60
2023-01-13T11:42:38.557Z,11.60
2023-01-13T11:45:12.883Z,11.50
2023-01-13T11:47:41.641Z,11.38
2023-01-13T11:50:15.758Z,12.30
2023-01-13T11:53:02.167Z,11.48
2023-01-13T11:55:36.659Z,10.70
2023-01-13T11:58:20.442Z,10.93
2023-01-13T12:01:09.515Z,11.85
2023-01-13T12:03:40.159Z,10.75
2023-01-13T12:06:15.927Z,10.90
2023-01-13T12:08:53.702Z,11.32
2023-01-13T12:11:26.087Z,11.32
2023-01-13T12:14:08.861Z,11.27
2023-01-13T12:16:39.253Z,10.75
2023-01-13T12:19:32.675Z,10.82
2023-01-13T12:22:05.184Z,9.90
2023-01-13T12:24:36.346Z,11.63
2023-01-13T12:27:10.605Z,12.63
2023-01-13T12:29:39.663Z,12.43
2023-01-13T12:32:09.867Z,12.00
2023-01-13T12:34:44.908Z,11.95
2023-01-13T12:37:17.194Z,10.85
2023-01-13T12:39:49.947Z,10.52
2023-01-13T12:42:38.437Z,11.10
2023-01-13T12:45:08.586Z,10.82
2023-01-13T12:47:38.233Z,10.57
2023-01-13T12:50:34.811Z,10.77
2023-01-13T12:53:23.432Z,13.02
2023-01-13T12:55:53.517Z,20.33
2023-01-13T12:58:30.590Z,12.50
2023-01-13T13:01:02.226Z,10.60
2023-01-13T13:03:32.671Z,9.75
2023-01-13T13:06:03.469Z,11.05
2023-01-13T13:08:46.735Z,10.25
2023-01-13T13:11:53.050Z,10.27
2023-01-13T13:14:36.329Z,10.50
2023-01-13T13:17:06.772Z,9.90
2023-01-13T13:19:56.613Z,10.98
2023-01-13T13:22:46.301Z,10.35
2023-01-13T13:25:26.183Z,9.73
2023-01-13T13:28:01.134Z,9.82
2023-01-13T13:30:32.555Z,10.48
2023-01-13T13:33:10.961Z,9.27
2023-01-13T13:35:43.461Z,9.77
2023-01-13T13:38:36.739Z,10.38
2023-01-13T13:41:29.591Z,9.98
2023-01-13T13:44:19.426Z,9.45
2023-01-13T13:46:51.942Z,11.05
2023-01-13T13:49:36.687Z,10.35
2023-01-13T13:52:13.846Z,10.70
2023-01-13T13:54:47.758Z,12.32
2023-01-13T13:57:19.093Z,13.23
2023-01-13T13:59:53.608Z,12.40
2023-01-13T14:02:29.853Z,13.65
2023-01-13T14:05:20.514Z,13.27
2023-01-13T14:07:50.285Z,12.20
2023-01-13T14:10:21.308Z,11.63
2023-01-13T14:12:49.901Z,11.95
2023-01-13T14:15:28.672Z,12.88
2023-01-13T14:17:57.667Z,12.95
2023-01-13T14:20:28.788Z,12.27
2023-01-13T14:23:01.571Z,13.88
2023-01-13T14:25:32.352Z,14.07
2023-01-13T14:28:02.283Z,13.05
2023-01-13T14:30:31.641Z,11.48
2023-01-13T14:33:00.942Z,11.77
2023-01-13T14:35:31.370Z,11.02
2023-01-13T14:38:04.265Z,12.15
2023-01-13T14:40:59.783Z,12.45
2023-01-13T14:43:28.368Z,12.45
2023-01-13T14:45:58.167Z,11.63
2023-01-13T14:48:33.323Z,13.02
2023-01-13T14:51:05.149Z,11.73
2023-01-13T14:53:37.851Z,11.13
2023-01-13T14:56:28.357Z,11.48
2023-01-13T14:58:57.626Z,12.68
2023-01-13T15:01:30.655Z,12.40
2023-01-13T15:04:13.885Z,12.73
2023-01-13T15:06:47.566Z,12.93
2023-01-13T15:09:16.504Z,12.20
2023-01-13T15:11:45.052Z,12.52
2023-01-13T15:14:13.480Z,12.75
2023-01-13T15:16:42.540Z,12.70
2023-01-13T15:19:11.371Z,12.52
2023-01-13T15:21:40.815Z,12.30
2023-01-13T15:24:10.585Z,13.32
2023-01-13T15:26:38.969Z,13.00
2023-01-13T15:29:11.444Z,13.30
2023-01-13T15:31:39.823Z,12.73
2023-01-13T15:34:08.904Z,12.70
2023-01-13T15:36:38.322Z,11.90
2023-01-13T15:39:08.177Z,12.85
2023-01-13T15:41:55.409Z,13.32
2023-01-13T15:44:40.474Z,14.45
2023-01-13T15:47:09.570Z,14.38
2023-01-13T15:49:39.396Z,16.80
2023-01-13T15:52:19.539Z,18.15
2023-01-13T15:54:47.847Z,15.65
2023-01-13T15:57:22.253Z,14.70
2023-01-13T15:59:51.171Z,14.02
2023-01-13T16:02:22.561Z,13.43
2023-01-13T16:04:53.934Z,12.90
2023-01-13T16:07:23.779Z,13.98
2023-01-13T16:09:54.108Z,13.68
2023-01-13T16:12:23.857Z,13.25
2023-01-13T16:14:52.930Z,13.00
2023-01-13T16:17:22.665Z,13.48
2023-01-13T16:19:52.206Z,12.70
2023-01-13T16:22:21.724Z,14.70
2023-01-13T16:24:50.893Z,13.65
2023-01-13T16:27:21.090Z,13.50
2023-01-13T16:29:52.253Z,13.55
2023-01-13T16:32:21.242Z,13.77
2023-01-13T16:34:51.012Z,14.07
2023-01-13T16:37:20.714Z,13.88
2023-01-13T16:39:49.226Z,14.32
2023-01-13T16:42:17.789Z,15.13
2023-01-13T16:44:46.757Z,13.65
2023-01-13T16:47:17.239Z,13.73
2023-01-13T16:49:48.844Z,13.70
2023-01-13T16:52:17.190Z,13.98
2023-01-13T16:54:45.508Z,13.32
2023-01-13T16:57:14.053Z,11.75
2023-01-13T16:59:42.952Z,13.45
2023-01-13T17:02:13.797Z,18.23
2023-01-13T17:04:44.477Z,14.38
2023-01-13T17:07:16.947Z,15.20
2023-01-13T17:09:48.138Z,16.85
2023-01-13T17:12:17.085Z,16.33
2023-01-13T17:14:45.553Z,14.48
2023-01-13T17:17:21.458Z,14.27
2023-01-13T17:19:55.249Z,15.25
2023-01-13T17:22:24.455Z,14.00
2023-01-13T17:25:04.258Z,15.10
2023-01-13T17:27:32.857Z,14.20
2023-01-13T17:30:01.907Z,13.15
2023-01-13T17:32:32.292Z,13.18
2023-01-13T17:35:02.904Z,12.57
2023-01-13T17:37:32.904Z,13.55
2023-01-13T17:40:01.912Z,15.77
2023-01-13T17:42:33.535Z,13.77
2023-01-13T17:45:01.817Z,14.45
2023-01-13T17:47:30.207Z,19.75
2023-01-13T17:49:58.951Z,16.80
2023-01-13T17:52:29.248Z,15.80
2023-01-13T17:54:57.653Z,17.05
2023-01-13T17:57:26.242Z,15.35
2023-01-13T17:59:55.612Z,14.10
2023-01-13T18:02:24.557Z,13.25
2023-01-13T18:04:53.225Z,14.73
2023-01-13T18:07:21.718Z,13.05
2023-01-13T18:09:52.639Z,13.90
2023-01-13T18:12:22.044Z,12.85
2023-01-13T18:14:51.184Z,13.57
2023-01-13T18:17:20.489Z,13.65
2023-01-13T18:20:11.225Z,13.82
2023-01-13T18:23:00.803Z,13.27
2023-01-13T18:25:50.398Z,14.02
2023-01-13T18:28:24.326Z,13.80
2023-01-13T18:30:55.703Z,12.68
2023-01-13T18:33:27.327Z,13.15
2023-01-13T18:35:56.162Z,13.20
2023-01-13T18:38:25.174Z,12.13
2023-01-13T18:40:55.913Z,13.18
2023-01-13T18:43:23.252Z,13.02
2023-01-13T18:45:52.711Z,13.27
2023-01-13T18:48:21.308Z,12.32
2023-01-13T18:50:50.147Z,12.43
2023-01-13T18:53:19.470Z,12.77
2023-01-13T18:55:51.219Z,13.32
2023-01-13T18:58:22.009Z,14.25
2023-01-13T19:00:51.146Z,15.07
2023-01-13T19:03:29.875Z,13.35
2023-01-13T19:06:04.525Z,14.43
2023-01-13T19:08:33.756Z,12.90
2023-01-13T19:11:05.407Z,12.73
2023-01-13T19:13:36.824Z,12.73
2023-01-13T19:16:06.360Z,12.68
2023-01-13T19:18:36.181Z,12.70
2023-01-13T19:21:05.116Z,11.85
2023-01-13T19:23:34.019Z,12.68
2023-01-13T19:26:05.101Z,12.23
2023-01-13T19:28:33.878Z,12.10
2023-01-13T19:31:04.940Z,11.98
2023-01-13T19:33:35.959Z,12.15
2023-01-13T19:36:05.532Z,12.25
2023-01-13T19:38:37.656Z,12.80
2023-01-13T19:41:33.566Z,11.75
2023-01-13T19:44:21.182Z,11.45
2023-01-13T19:46:55.334Z,12.05
2023-01-13T19:49:26.864Z,12.18
2023-01-13T19:51:55.464Z,13.20
2023-01-13T19:54:23.833Z,12.10
2023-01-13T19:56:52.999Z,12.73
2023-01-13T19:59:29.357Z,11.90
2023-01-13T20:02:05.412Z,11.82
2023-01-13T20:04:47.413Z,11.82
2023-01-13T20:07:17.357Z,11.55
2023-01-13T20:09:45.790Z,11.38
2023-01-13T20:12:17.938Z,11.18
2023-01-13T20:14:47.735Z,10.55
2023-01-13T20:17:19.167Z,12.25
2023-01-13T20:19:48.525Z,10.82
2023-01-13T20:22:17.592Z,11.20
2023-01-13T20:24:59.296Z,11.25
2023-01-13T20:27:28.652Z,11.98
2023-01-13T20:29:58.177Z,11.73
2023-01-13T20:32:29.496Z,11.20
2023-01-13T20:34:58.546Z,11.55
2023-01-13T20:37:27.913Z,12.05
2023-01-13T20:40:01.951Z,12.50
2023-01-13T20:42:30.346Z,12.88
2023-01-13T20:44:59.970Z,14.32
2023-01-13T20:47:31.142Z,13.57
2023-01-13T20:50:00.855Z,13.38
2023-01-13T20:52:29.939Z,12.95
2023-01-13T20:54:59.522Z,13.82
2023-01-13T20:57:28.752Z,12.63
2023-01-13T20:59:59.212Z,13.30
2023-01-13T21:02:28.022Z,14.98
2023-01-13T21:04:59.027Z,14.23
2023-01-13T21:07:28.892Z,14.63
2023-01-13T21:09:57.914Z,17.15
2023-01-13T21:12:44.111Z,16.83
2023-01-13T21:15:20.374Z,15.65
2023-01-13T21:18:08.012Z,16.23
2023-01-13T21:20:39.603Z,16.00
2023-01-13T21:23:10.971Z,16.67
2023-01-13T21:25:40.398Z,17.92
2023-01-13T21:28:13.984Z,17.80
2023-01-13T21:30:44.028Z,20.65
2023-01-13T21:33:14.945Z,19.55
2023-01-13T21:35:45.904Z,18.67
2023-01-13T21:38:14.463Z,27.17
2023-01-13T21:40:43.435Z,27.42
2023-01-13T21:43:45.357Z,36.38
2023-01-13T21:46:31.746Z,28.48
2023-01-13T21:49:00.859Z,24.73
2023-01-13T21:51:31.550Z,23.63
2023-01-13T21:54:01.305Z,24.20
2023-01-13T21:56:30.262Z,26.10
2023-01-13T21:58:59.399Z,19.52
2023-01-13T22:01:28.587Z,24.17
2023-01-13T22:04:15.210Z,20.77
2023-01-13T22:06:45.999Z,19.48
2023-01-13T22:09:15.468Z,19.00
2023-01-13T22:11:44.330Z,18.65
2023-01-13T22:14:14.127Z,19.60
2023-01-13T22:16:49.728Z,18.20
2023-01-13T22:19:19.797Z,19.60
2023-01-13T22:21:50.230Z,19.35
2023-01-13T22:24:18.984Z,19.52
2023-01-13T22:26:47.647Z,20.42
2023-01-13T22:29:16.615Z,20.20
2023-01-13T22:31:46.206Z,19.85
2023-01-13T22:34:15.255Z,19.75
2023-01-13T22:36:44.244Z,18.98
2023-01-13T22:39:17.849Z,19.35
2023-01-13T22:41:48.053Z,19.60
2023-01-13T22:44:16.721Z,20.23
2023-01-13T22:46:48.398Z,18.58
2023-01-13T22:49:17.831Z,18.90
2023-01-13T22:51:46.337Z,19.35
2023-01-13T22:54:18.605Z,20.50
2023-01-13T22:56:50.442Z,19.65
2023-01-13T22:59:21.565Z,21.08
2023-01-13T23:01:49.908Z,19.83
2023-01-13T23:04:19.087Z,20.30
2023-01-13T23:06:48.190Z,19.58
2023-01-13T23:09:18.157Z,20.33
2023-01-13T23:11:47.952Z,19.58
2023-01-13T23:14:17.156Z,20.05
2023-01-13T23:16:47.118Z,19.48
2023-01-13T23:19:16.447Z,19.02
2023-01-13T23:21:45.596Z,20.23
2023-01-13T23:24:14.017Z,20.23
2023-01-13T23:26:44.653Z,20.25
2023-01-13T23:29:14.491Z,21.00
2023-01-13T23:31:43.756Z,22.15
2023-01-13T23:34:14.041Z,21.83
2023-01-13T23:36:44.592Z,21.50
2023-01-13T23:39:14.258Z,22.75
2023-01-13T23:41:44.646Z,22.83
2023-01-13T23:44:13.281Z,23.83
2023-01-13T23:46:41.929Z,25.02
2023-01-13T23:49:11.045Z,24.08
2023-01-13T23:51:42.968Z,27.27
2023-01-13T23:54:12.741Z,25.95
2023-01-13T23:56:41.165Z,25.23
2023-01-13T23:59:11.382Z,25.88
